createdAt,value
2023-04-24T00:00:49.767Z,100.00
2023-04-24T00:03:18.012Z,100.00
2023-04-24T00:05:46.657Z,100.00
2023-04-24T00:08:15.828Z,100.00
2023-04-24T00:10:43.704Z,100.00
2023-04-24T00:13:11.584Z,100.00
2023-04-24T00:15:39.316Z,100.00
2023-04-24T00:18:07.336Z,100.00
2023-04-24T00:20:36.447Z,100.00
2023-04-24T00:23:04.485Z,100.00
2023-04-24T00:25:33.559Z,100.00
2023-04-24T00:28:01.393Z,100.00
2023-04-24T00:30:29.234Z,100.00
2023-04-24T00:32:57.067Z,100.00
2023-04-24T00:35:24.921Z,100.00
2023-04-24T00:37:52.676Z,100.00
2023-04-24T00:40:20.648Z,100.00
2023-04-24T00:42:49.875Z,100.00
2023-04-24T00:45:18.066Z,100.00
2023-04-24T00:47:47.466Z,100.00
2023-04-24T00:50:17.396Z,100.00
2023-04-24T00:52:45.291Z,100.00
2023-04-24T00:55:13.145Z,100.00
2023-04-24T00:57:41.457Z,100.00
2023-04-24T01:00:12.971Z,100.00
2023-04-24T01:02:45.067Z,100.00
2023-04-24T01:05:14.166Z,100.00
2023-04-24T01:07:45.030Z,100.00
2023-04-24T01:10:14.775Z,100.00
2023-04-24T01:12:42.720Z,100.00
2023-04-24T01:15:12.610Z,100.00
2023-04-24T01:17:40.700Z,100.00
2023-04-24T01:20:09.792Z,100.00
2023-04-24T01:22:38.867Z,100.00
2023-04-24T01:25:07.500Z,100.00
2023-04-24T01:27:35.324Z,100.00
2023-04-24T01:30:03.359Z,100.00
2023-04-24T01:32:31.256Z,100.00
2023-04-24T01:34:59.455Z,100.00
2023-04-24T01:37:27.814Z,100.00
2023-04-24T01:39:57.003Z,100.00
2023-04-24T01:42:24.882Z,100.00
2023-04-24T01:44:52.891Z,100.00
2023-04-24T01:47:21.033Z,100.00
2023-04-24T01:49:50.255Z,100.00
2023-04-24T01:52:18.853Z,100.00
2023-04-24T01:54:47.132Z,100.00
2023-04-24T01:57:17.423Z,100.00
2023-04-24T01:59:45.413Z,100.00
2023-04-24T02:02:13.332Z,100.00
2023-04-24T02:04:41.722Z,100.00
2023-04-24T02:07:09.454Z,100.00
2023-04-24T02:09:37.190Z,100.00
2023-04-24T02:12:05.217Z,100.00
2023-04-24T02:14:34.319Z,100.00
2023-04-24T02:17:02.130Z,100.00
2023-04-24T02:19:29.948Z,100.00
2023-04-24T02:21:57.734Z,100.00
2023-04-24T02:24:25.479Z,100.00
2023-04-24T02:26:53.404Z,100.00
2023-04-24T02:29:21.178Z,100.00
2023-04-24T02:31:50.360Z,100.00
2023-04-24T02:34:18.350Z,100.00
2023-04-24T02:36:46.098Z,100.00
2023-04-24T02:39:14.384Z,100.00
2023-04-24T02:41:42.200Z,100.00
2023-04-24T02:44:10.061Z,100.00
2023-04-24T02:46:37.778Z,100.00
2023-04-24T02:49:06.964Z,100.00
2023-04-24T02:51:34.701Z,100.00
2023-04-24T02:54:02.492Z,100.00
2023-04-24T02:56:30.293Z,100.00
2023-04-24T02:58:58.030Z,100.00
2023-04-24T03:01:26.083Z,100.00
2023-04-24T03:03:54.045Z,100.00
2023-04-24T03:06:23.858Z,100.00
2023-04-24T03:08:51.560Z,100.00
2023-04-24T03:11:19.326Z,100.00
2023-04-24T03:13:47.072Z,100.00
2023-04-24T03:16:17.398Z,100.00
2023-04-24T03:18:45.235Z,100.00
2023-04-24T03:21:13.846Z,100.00
2023-04-24T03:23:42.919Z,100.00
2023-04-24T03:26:10.739Z,100.00
2023-04-24T03:28:38.465Z,100.00
2023-04-24T03:31:06.336Z,100.00
2023-04-24T03:33:34.205Z,100.00
2023-04-24T03:36:01.938Z,100.00
2023-04-24T03:38:29.670Z,100.00
2023-04-24T03:40:58.786Z,100.00
2023-04-24T03:43:28.351Z,100.00
2023-04-24T03:45:56.322Z,100.00
2023-04-24T03:48:24.112Z,100.00
2023-04-24T03:50:51.826Z,100.00
2023-04-24T03:53:20.784Z,100.00
2023-04-24T03:55:48.630Z,100.00
2023-04-24T03:58:18.878Z,100.00
2023-04-24T04:00:47.552Z,100.00
2023-04-24T04:03:15.653Z,100.00
2023-04-24T04:05:43.592Z,100.00
2023-04-24T04:08:11.320Z,100.00
2023-04-24T04:10:39.086Z,100.00
2023-04-24T04:13:07.534Z,100.00
2023-04-24T04:15:36.714Z,100.00
2023-04-24T04:18:04.686Z,100.00
2023-04-24T04:20:32.473Z,100.00
2023-04-24T04:23:00.185Z,100.00
2023-04-24T04:25:27.995Z,100.00
2023-04-24T04:27:55.967Z,100.00
2023-04-24T04:30:24.488Z,100.00
2023-04-24T04:32:53.733Z,100.00
2023-04-24T04:35:22.950Z,100.00
2023-04-24T04:37:52.222Z,100.00
2023-04-24T04:40:20.049Z,100.00
2023-04-24T04:42:48.584Z,100.00
2023-04-24T04:45:17.897Z,100.00
2023-04-24T04:47:46.514Z,100.00
2023-04-24T04:50:15.688Z,100.00
2023-04-24T04:52:44.531Z,100.00
2023-04-24T04:55:15.812Z,100.00
2023-04-24T04:57:43.560Z,100.00
2023-04-24T05:00:12.803Z,100.00
2023-04-24T05:02:41.483Z,100.00
2023-04-24T05:05:10.262Z,100.00
2023-04-24T05:07:39.418Z,100.00
2023-04-24T05:10:08.228Z,100.00
2023-04-24T05:12:36.189Z,100.00
2023-04-24T05:15:04.578Z,100.00
2023-04-24T05:17:32.490Z,100.00
2023-04-24T05:20:00.313Z,100.00
2023-04-24T05:22:28.041Z,100.00
2023-04-24T05:24:57.183Z,100.00
2023-04-24T05:27:25.122Z,100.00
2023-04-24T05:29:53.104Z,100.00
2023-04-24T05:32:20.933Z,100.00
2023-04-24T05:34:48.656Z,100.00
2023-04-24T05:37:16.489Z,100.00
2023-04-24T05:39:44.482Z,100.00
2023-04-24T05:42:13.748Z,100.00
2023-04-24T05:44:41.472Z,100.00
2023-04-24T05:47:09.283Z,100.00
2023-04-24T05:49:37.017Z,100.00
2023-04-24T05:52:06.595Z,100.00
2023-04-24T05:54:34.375Z,100.00
2023-04-24T05:57:05.384Z,100.00
2023-04-24T05:59:34.459Z,100.00
2023-04-24T06:02:02.315Z,100.00
2023-04-24T06:04:30.296Z,100.00
2023-04-24T06:06:58.408Z,100.00
2023-04-24T06:09:26.287Z,100.00
2023-04-24T06:11:55.165Z,100.00
2023-04-24T06:14:23.150Z,100.00
2023-04-24T06:16:52.357Z,100.00
2023-04-24T06:19:20.183Z,100.00
2023-04-24T06:21:48.247Z,100.00
2023-04-24T06:24:16.756Z,100.00
2023-04-24T06:26:44.707Z,100.00
2023-04-24T06:29:12.483Z,100.00
2023-04-24T06:31:40.262Z,100.00
2023-04-24T06:34:09.381Z,100.00
2023-04-24T06:36:37.232Z,100.00
2023-04-24T06:39:05.204Z,100.00
2023-04-24T06:41:32.958Z,100.00
2023-04-24T06:44:00.839Z,100.00
2023-04-24T06:46:28.843Z,100.00
2023-04-24T06:48:57.383Z,100.00
2023-04-24T06:51:27.689Z,100.00
2023-04-24T06:53:57.019Z,100.00
2023-04-24T06:56:24.885Z,100.00
2023-04-24T06:58:52.752Z,100.00
2023-04-24T07:01:20.824Z,100.00
2023-04-24T07:03:49.879Z,100.00
2023-04-24T07:06:19.718Z,100.00
2023-04-24T07:08:49.029Z,100.00
2023-04-24T07:11:16.879Z,100.00
2023-04-24T07:13:45.249Z,100.00
2023-04-24T07:16:13.099Z,100.00
2023-04-24T07:18:41.046Z,100.00
2023-04-24T07:21:09.049Z,100.00
2023-04-24T07:23:36.821Z,100.00
2023-04-24T07:26:06.449Z,100.00
2023-04-24T07:28:34.256Z,100.00
2023-04-24T07:31:02.086Z,100.00
2023-04-24T07:33:29.927Z,100.00
2023-04-24T07:35:57.736Z,100.00
2023-04-24T07:38:26.846Z,100.00
2023-04-24T07:40:54.676Z,100.00
2023-04-24T07:43:24.757Z,100.00
2023-04-24T07:45:53.004Z,100.00
2023-04-24T07:48:22.506Z,100.00
2023-04-24T07:50:50.872Z,100.00
2023-04-24T07:53:18.649Z,100.00
2023-04-24T07:55:46.561Z,100.00
2023-04-24T07:58:14.524Z,100.00
2023-04-24T08:00:43.604Z,100.00
2023-04-24T08:03:11.557Z,100.00
2023-04-24T08:05:41.026Z,100.00
2023-04-24T08:08:08.958Z,100.00
2023-04-24T08:10:36.789Z,100.00
2023-04-24T08:13:04.619Z,100.00
2023-04-24T08:15:32.367Z,100.00
2023-04-24T08:18:01.918Z,100.00
2023-04-24T08:20:29.720Z,100.00
2023-04-24T08:22:57.538Z,100.00
2023-04-24T08:25:25.736Z,100.00
2023-04-24T08:27:53.769Z,100.00
2023-04-24T08:30:21.524Z,100.00
2023-04-24T08:32:49.929Z,100.00
2023-04-24T08:35:19.709Z,100.00
2023-04-24T08:37:47.512Z,100.00
2023-04-24T08:40:16.463Z,100.00
2023-04-24T08:42:45.349Z,100.00
2023-04-24T08:45:15.064Z,100.00
2023-04-24T08:47:45.097Z,100.00
2023-04-24T08:50:13.630Z,100.00
2023-04-24T08:52:44.558Z,100.00
2023-04-24T08:55:12.411Z,100.00
2023-04-24T08:57:41.247Z,100.00
2023-04-24T09:00:11.941Z,100.00
2023-04-24T09:02:44.091Z,100.00
2023-04-24T09:05:12.739Z,100.00
2023-04-24T09:07:46.660Z,100.00
2023-04-24T09:10:15.012Z,100.00
2023-04-24T09:12:43.602Z,100.00
2023-04-24T09:15:12.936Z,100.00
2023-04-24T09:17:40.878Z,100.00
2023-04-24T09:20:09.995Z,100.00
2023-04-24T09:22:38.508Z,100.00
2023-04-24T09:25:09.966Z,100.00
2023-04-24T09:27:37.815Z,100.00
2023-04-24T09:30:06.240Z,100.00
2023-04-24T09:32:34.042Z,100.00
2023-04-24T09:35:10.408Z,100.00
2023-04-24T09:37:39.835Z,100.00
2023-04-24T09:40:14.208Z,100.00
2023-04-24T09:42:42.363Z,100.00
2023-04-24T09:45:15.431Z,100.00
2023-04-24T09:47:44.752Z,100.00
2023-04-24T09:50:15.364Z,100.00
2023-04-24T09:52:46.784Z,100.00
2023-04-24T09:55:22.728Z,100.00
2023-04-24T09:57:55.567Z,100.00
2023-04-24T10:00:28.367Z,100.00
2023-04-24T10:03:01.363Z,100.00
2023-04-24T10:05:32.624Z,100.00
2023-04-24T10:08:04.348Z,100.00
2023-04-24T10:10:34.727Z,100.00
2023-04-24T10:13:04.570Z,100.00
2023-04-24T10:15:34.018Z,100.00
2023-04-24T10:18:02.935Z,100.00
2023-04-24T10:20:33.161Z,100.00
2023-04-24T10:23:03.561Z,100.00
2023-04-24T10:25:35.182Z,100.00
2023-04-24T10:28:04.765Z,100.00
2023-04-24T10:30:36.910Z,100.00
2023-04-24T10:33:06.797Z,100.00
2023-04-24T10:35:38.054Z,100.00
2023-04-24T10:38:10.058Z,100.00
2023-04-24T10:40:39.541Z,100.00
2023-04-24T10:43:09.408Z,100.00
2023-04-24T10:45:37.516Z,100.00
2023-04-24T10:48:11.810Z,100.00
2023-04-24T10:50:47.757Z,100.00
2023-04-24T10:53:18.900Z,100.00
2023-04-24T10:55:49.959Z,100.00
2023-04-24T10:58:18.761Z,100.00
2023-04-24T11:00:57.142Z,100.00
2023-04-24T11:03:27.820Z,100.00
2023-04-24T11:06:00.128Z,100.00
2023-04-24T11:08:39.643Z,100.00
2023-04-24T11:11:13.312Z,100.00
2023-04-24T11:14:04.397Z,100.00
2023-04-24T11:16:35.512Z,100.00
2023-04-24T11:19:06.491Z,100.00
2023-04-24T11:21:40.841Z,100.00
2023-04-24T11:24:33.392Z,100.00
2023-04-24T11:27:09.964Z,100.00
2023-04-24T11:29:42.553Z,100.00
2023-04-24T11:32:18.364Z,100.00
2023-04-24T11:34:48.292Z,100.00
2023-04-24T11:37:16.200Z,100.00
2023-04-24T11:39:44.022Z,100.00
2023-04-24T11:42:16.812Z,100.00
2023-04-24T11:44:45.078Z,100.00
2023-04-24T11:47:13.005Z,100.00
2023-04-24T11:49:40.775Z,100.00
2023-04-24T11:52:08.639Z,100.00
2023-04-24T11:54:36.664Z,100.00
2023-04-24T11:57:06.916Z,100.00
2023-04-24T11:59:39.743Z,100.00
2023-04-24T12:02:08.166Z,100.00
2023-04-24T12:04:43.193Z,100.00
2023-04-24T12:07:11.597Z,100.00
2023-04-24T12:09:43.720Z,100.00
2023-04-24T12:12:13.293Z,100.00
2023-04-24T12:14:46.757Z,100.00
2023-04-24T12:17:14.681Z,100.00
2023-04-24T12:19:47.643Z,100.00
2023-04-24T12:22:15.938Z,100.00
2023-04-24T12:25:03.371Z,100.00
2023-04-24T12:27:35.677Z,100.00
2023-04-24T12:30:06.899Z,98.53
2023-04-24T12:32:34.744Z,97.05
2023-04-24T12:35:07.066Z,96.41
2023-04-24T12:37:37.426Z,93.54
2023-04-24T12:40:08.092Z,92.27
2023-04-24T12:42:37.340Z,95.00
2023-04-24T12:45:09.063Z,95.77
2023-04-24T12:47:37.778Z,94.88
2023-04-24T12:50:07.082Z,92.51
2023-04-24T12:52:35.338Z,89.04
2023-04-24T12:55:04.447Z,91.32
2023-04-24T12:57:33.493Z,85.58
2023-04-24T13:00:03.129Z,85.90
2023-04-24T13:02:35.379Z,87.28
2023-04-24T13:05:04.732Z,88.82
2023-04-24T13:07:34.346Z,89.98
2023-04-24T13:10:02.150Z,90.38
2023-04-24T13:12:30.063Z,90.09
2023-04-24T13:14:58.474Z,92.30
2023-04-24T13:17:27.331Z,88.66
2023-04-24T13:19:57.377Z,87.83
2023-04-24T13:22:26.032Z,87.63
2023-04-24T13:24:53.786Z,88.51
2023-04-24T13:27:21.531Z,86.79
2023-04-24T13:29:49.376Z,88.55
2023-04-24T13:32:17.265Z,89.38
2023-04-24T13:34:45.219Z,90.68
2023-04-24T13:37:14.413Z,93.51
2023-04-24T13:39:42.800Z,93.75
2023-04-24T13:42:10.727Z,97.20
2023-04-24T13:44:38.835Z,99.30
2023-04-24T13:47:06.772Z,97.48
2023-04-24T13:49:34.531Z,100.00
2023-04-24T13:52:02.342Z,100.00
2023-04-24T13:54:32.795Z,100.00
2023-04-24T13:57:03.952Z,100.00
2023-04-24T13:59:32.220Z,100.00
2023-04-24T14:02:00.683Z,100.00
2023-04-24T14:04:29.215Z,100.00
2023-04-24T14:06:57.223Z,100.00
2023-04-24T14:09:25.005Z,100.00
2023-04-24T14:11:54.800Z,100.00
2023-04-24T14:14:22.574Z,100.00
2023-04-24T14:16:50.425Z,100.00
2023-04-24T14:19:18.169Z,100.00
2023-04-24T14:21:45.950Z,100.00
2023-04-24T14:24:13.697Z,100.00
2023-04-24T14:26:41.545Z,100.00
2023-04-24T14:29:14.632Z,100.00
2023-04-24T14:31:43.295Z,100.00
2023-04-24T14:34:11.408Z,100.00
2023-04-24T14:36:39.260Z,100.00
2023-04-24T14:39:07.743Z,100.00
2023-04-24T14:41:36.855Z,100.00
2023-04-24T14:44:06.410Z,100.00
2023-04-24T14:46:36.647Z,100.00
2023-04-24T14:49:05.270Z,100.00
2023-04-24T14:51:33.968Z,100.00
2023-04-24T14:54:02.960Z,100.00
2023-04-24T14:56:31.861Z,100.00
2023-04-24T14:58:59.706Z,100.00
2023-04-24T15:01:27.608Z,100.00
2023-04-24T15:03:56.864Z,100.00
2023-04-24T15:06:24.751Z,100.00
2023-04-24T15:08:52.577Z,100.00
2023-04-24T15:11:20.936Z,100.00
2023-04-24T15:13:48.986Z,100.00
2023-04-24T15:16:17.122Z,100.00
2023-04-24T15:18:44.945Z,100.00
2023-04-24T15:21:14.224Z,100.00
2023-04-24T15:23:41.993Z,100.00
2023-04-24T15:26:09.737Z,99.58
2023-04-24T15:28:37.593Z,100.00
2023-04-24T15:31:05.378Z,100.00
2023-04-24T15:33:33.123Z,100.00
2023-04-24T15:36:01.014Z,100.00
2023-04-24T15:38:30.127Z,100.00
2023-04-24T15:40:57.878Z,100.00
2023-04-24T15:43:25.814Z,100.00
2023-04-24T15:45:53.630Z,100.00
2023-04-24T15:48:21.398Z,100.00
2023-04-24T15:50:49.243Z,100.00
2023-04-24T15:53:22.061Z,100.00
2023-04-24T15:55:51.884Z,100.00
2023-04-24T15:58:22.088Z,100.00
2023-04-24T16:00:50.098Z,100.00
2023-04-24T16:03:18.071Z,100.00
2023-04-24T16:05:45.952Z,100.00
2023-04-24T16:08:15.308Z,100.00
2023-04-24T16:10:44.199Z,100.00
2023-04-24T16:13:13.557Z,100.00
2023-04-24T16:15:41.678Z,100.00
2023-04-24T16:18:09.609Z,100.00
2023-04-24T16:20:37.537Z,100.00
2023-04-24T16:23:05.457Z,100.00
2023-04-24T16:25:33.379Z,100.00
2023-04-24T16:28:01.181Z,100.00
2023-04-24T16:30:30.471Z,100.00
2023-04-24T16:32:58.343Z,100.00
2023-04-24T16:35:26.206Z,100.00
2023-04-24T16:37:54.031Z,100.00
2023-04-24T16:40:21.810Z,100.00
2023-04-24T16:42:50.214Z,100.00
2023-04-24T16:45:18.222Z,100.00
2023-04-24T16:47:47.395Z,100.00
2023-04-24T16:50:15.264Z,100.00
2023-04-24T16:52:43.487Z,100.00
2023-04-24T16:55:11.574Z,100.00
2023-04-24T16:57:39.362Z,100.00
2023-04-24T17:00:08.983Z,100.00
2023-04-24T17:02:36.803Z,100.00
2023-04-24T17:05:07.411Z,100.00
2023-04-24T17:07:35.443Z,100.00
2023-04-24T17:10:03.268Z,100.00
2023-04-24T17:12:31.145Z,100.00
2023-04-24T17:14:58.916Z,100.00
2023-04-24T17:17:26.865Z,100.00
2023-04-24T17:19:54.672Z,100.00
2023-04-24T17:22:23.823Z,100.00
2023-04-24T17:24:51.545Z,100.00
2023-04-24T17:27:19.301Z,100.00
2023-04-24T17:29:47.143Z,100.00
2023-04-24T17:32:14.956Z,100.00
2023-04-24T17:34:42.758Z,100.00
2023-04-24T17:37:10.689Z,100.00
2023-04-24T17:39:40.022Z,100.00
2023-04-24T17:42:07.781Z,100.00
2023-04-24T17:44:35.870Z,100.00
2023-04-24T17:47:04.849Z,100.00
2023-04-24T17:49:32.827Z,100.00
2023-04-24T17:52:00.728Z,100.00
2023-04-24T17:54:28.527Z,100.00
2023-04-24T17:56:57.661Z,100.00
2023-04-24T17:59:25.764Z,100.00
2023-04-24T18:01:53.896Z,100.00
2023-04-24T18:04:22.022Z,100.00
2023-04-24T18:06:49.973Z,100.00
2023-04-24T18:09:20.695Z,100.00
2023-04-24T18:11:49.670Z,100.00
2023-04-24T18:14:18.740Z,100.00
2023-04-24T18:16:46.544Z,100.00
2023-04-24T18:19:14.362Z,100.00
2023-04-24T18:21:42.109Z,100.00
2023-04-24T18:24:10.335Z,100.00
2023-04-24T18:26:38.131Z,100.00
2023-04-24T18:29:05.873Z,100.00
2023-04-24T18:31:35.134Z,100.00
2023-04-24T18:34:02.982Z,100.00
2023-04-24T18:36:30.733Z,100.00
2023-04-24T18:38:58.492Z,100.00
2023-04-24T18:41:26.337Z,100.00
2023-04-24T18:43:55.683Z,100.00
2023-04-24T18:46:23.475Z,100.00
2023-04-24T18:48:52.678Z,100.00
2023-04-24T18:51:20.494Z,100.00
2023-04-24T18:53:48.333Z,100.00
2023-04-24T18:56:16.435Z,100.00
2023-04-24T18:58:46.271Z,100.00
2023-04-24T19:01:14.331Z,100.00
2023-04-24T19:03:42.374Z,100.00
2023-04-24T19:06:11.703Z,100.00
2023-04-24T19:08:39.530Z,100.00
2023-04-24T19:11:07.347Z,100.00
2023-04-24T19:13:35.166Z,100.00
2023-04-24T19:16:02.973Z,100.00
2023-04-24T19:18:30.756Z,100.00
2023-04-24T19:20:59.004Z,100.00
2023-04-24T19:23:28.435Z,100.00
2023-04-24T19:25:56.308Z,100.00
2023-04-24T19:28:24.019Z,100.00
2023-04-24T19:30:51.743Z,100.00
2023-04-24T19:33:19.540Z,100.00
2023-04-24T19:35:47.377Z,100.00
2023-04-24T19:38:15.529Z,100.00
2023-04-24T19:40:44.836Z,100.00
2023-04-24T19:43:13.222Z,100.00
2023-04-24T19:45:41.675Z,100.00
2023-04-24T19:48:09.662Z,100.00
2023-04-24T19:50:37.566Z,100.00
2023-04-24T19:53:06.451Z,100.00
2023-04-24T19:55:34.240Z,100.00
2023-04-24T19:58:03.527Z,100.00
2023-04-24T20:00:32.040Z,100.00
2023-04-24T20:02:59.886Z,100.00
2023-04-24T20:05:28.333Z,100.00
2023-04-24T20:07:56.197Z,100.00
2023-04-24T20:10:23.996Z,100.00
2023-04-24T20:12:51.834Z,100.00
2023-04-24T20:15:21.099Z,100.00
2023-04-24T20:17:48.907Z,100.00
2023-04-24T20:20:16.643Z,100.00
2023-04-24T20:22:44.536Z,100.00
2023-04-24T20:25:13.362Z,100.00
2023-04-24T20:27:41.952Z,100.00
2023-04-24T20:30:13.206Z,100.00
2023-04-24T20:32:43.037Z,100.00
2023-04-24T20:35:11.943Z,100.00
2023-04-24T20:37:40.495Z,100.00
2023-04-24T20:40:09.969Z,100.00
2023-04-24T20:42:38.349Z,100.00
2023-04-24T20:45:07.765Z,100.00
2023-04-24T20:47:35.622Z,100.00
2023-04-24T20:50:06.325Z,100.00
2023-04-24T20:52:34.065Z,100.00
2023-04-24T20:55:01.912Z,100.00
2023-04-24T20:57:29.856Z,100.00
2023-04-24T20:59:57.693Z,100.00
2023-04-24T21:02:25.524Z,100.00
2023-04-24T21:04:53.337Z,100.00
2023-04-24T21:07:22.444Z,100.00
2023-04-24T21:09:50.182Z,100.00
2023-04-24T21:12:17.976Z,100.00
2023-04-24T21:14:45.752Z,100.00
2023-04-24T21:17:13.933Z,100.00
2023-04-24T21:19:41.746Z,100.00
2023-04-24T21:22:09.475Z,100.00
2023-04-24T21:24:38.546Z,100.00
2023-04-24T21:27:07.382Z,100.00
2023-04-24T21:29:35.921Z,100.00
2023-04-24T21:32:03.905Z,100.00
2023-04-24T21:34:31.804Z,100.00
2023-04-24T21:36:59.794Z,100.00
2023-04-24T21:39:27.913Z,100.00
2023-04-24T21:41:57.875Z,100.00
2023-04-24T21:44:25.858Z,100.00
2023-04-24T21:46:54.722Z,100.00
2023-04-24T21:49:22.585Z,100.00
2023-04-24T21:51:50.324Z,100.00
2023-04-24T21:54:18.437Z,100.00
2023-04-24T21:56:46.228Z,100.00
2023-04-24T21:59:15.721Z,100.00
2023-04-24T22:01:44.436Z,100.00
2023-04-24T22:04:12.540Z,100.00
2023-04-24T22:06:40.377Z,100.00
2023-04-24T22:09:08.257Z,100.00
2023-04-24T22:11:36.621Z,100.00
2023-04-24T22:14:07.043Z,100.00
2023-04-24T22:16:36.213Z,100.00
2023-04-24T22:19:04.993Z,100.00
2023-04-24T22:21:32.809Z,100.00
2023-04-24T22:24:00.585Z,100.00
2023-04-24T22:26:28.480Z,100.00
2023-04-24T22:28:56.228Z,100.00
2023-04-24T22:31:24.746Z,100.00
2023-04-24T22:33:54.021Z,100.00
2023-04-24T22:36:21.840Z,100.00
2023-04-24T22:38:49.609Z,100.00
2023-04-24T22:41:17.450Z,100.00
2023-04-24T22:43:45.569Z,100.00
2023-04-24T22:46:13.287Z,100.00
2023-04-24T22:48:41.119Z,100.00
2023-04-24T22:51:10.733Z,100.00
2023-04-24T22:53:38.484Z,100.00
2023-04-24T22:56:07.115Z,100.00
2023-04-24T22:58:35.011Z,100.00
2023-04-24T23:01:02.844Z,100.00
2023-04-24T23:03:31.734Z,100.00
2023-04-24T23:05:59.610Z,100.00
2023-04-24T23:08:30.595Z,100.00
2023-04-24T23:10:58.650Z,100.00
2023-04-24T23:13:27.243Z,100.00
2023-04-24T23:15:55.243Z,100.00
2023-04-24T23:18:23.084Z,100.00
2023-04-24T23:20:51.347Z,100.00
2023-04-24T23:23:20.062Z,100.00
2023-04-24T23:25:49.253Z,100.00
2023-04-24T23:28:17.027Z,100.00
2023-04-24T23:30:44.803Z,100.00
2023-04-24T23:33:13.984Z,100.00
2023-04-24T23:35:41.743Z,100.00
2023-04-24T23:38:09.476Z,100.00
2023-04-24T23:40:37.388Z,100.00
2023-04-24T23:43:07.922Z,100.00
2023-04-24T23:45:37.311Z,100.00
2023-04-24T23:48:05.939Z,100.00
2023-04-24T23:50:33.796Z,100.00
2023-04-24T23:53:01.639Z,100.00
2023-04-24T23:55:29.527Z,100.00
2023-04-24T23:57:57.310Z,100.00
